Time;durP1;ratioP1;P1;durP2;ratioP2;P2;SDS_P1;SDS_P2;PMS_P1;PMS_P2;Temp;Humidity;BMP_temperature;BMP_pressure;BME280_temperature;BME280_humidity;BME280_pressure;Samples;Min_cycle;Max_cycle;Signal;HPM_P1;HPM_P2
2022/06/08 00:04:58;;;;;;;0.67;0.67;;;19.40;39.60;;;;;;10508400;28;20226;-76
2022/06/08 00:10:02;;;;;;;0.70;0.70;;;19.30;39.80;;;;;;10520262;28;20342;-76
2022/06/08 00:15:07;;;;;;;0.70;0.60;;;19.30;39.60;;;;;;10543976;28;20233;-76
2022/06/08 00:20:14;;;;;;;0.60;0.60;;;19.30;39.90;;;;;;10557244;28;20219;-76
2022/06/08 00:25:17;;;;;;;1.03;0.73;;;19.30;40.10;;;;;;10558037;27;20227;-76
2022/06/08 00:30:20;;;;;;;0.90;0.80;;;19.30;39.60;;;;;;10559532;28;20223;-76
2022/06/08 00:35:25;;;;;;;0.80;0.80;;;19.30;39.60;;;;;;10561512;28;20230;-76
2022/06/08 00:40:38;;;;;;;0.77;0.70;;;19.30;39.90;;;;;;10551409;28;20730;-76
2022/06/08 00:45:42;;;;;;;0.70;0.70;;;19.20;40.30;;;;;;10550435;27;20235;-76
2022/06/08 00:50:50;;;;;;;1.00;0.90;;;19.20;39.90;;;;;;10560205;27;20256;-76
2022/06/08 00:55:55;;;;;;;0.77;0.77;;;19.20;40.30;;;;;;10559539;27;20226;-76
2022/06/08 01:00:59;;;;;;;2.33;0.70;;;19.10;39.90;;;;;;10550684;28;20225;-76
2022/06/08 01:06:07;;;;;;;0.93;0.70;;;19.10;39.90;;;;;;10516385;28;20220;-76
2022/06/08 01:11:17;;;;;;;1.83;0.77;;;19.10;40.60;;;;;;10514545;28;20231;-76
2022/06/08 01:16:20;;;;;;;0.80;0.80;;;19.10;40.70;;;;;;10511645;28;20224;-76
2022/06/08 01:21:47;;;;;;;1.63;0.70;;;19.10;40.30;;;;;;10520369;28;20235;-77
2022/06/08 01:27:11;;;;;;;0.70;0.70;;;19.00;40.90;;;;;;10550808;28;20226;-76
2022/06/08 01:32:34;;;;;;;1.40;0.80;;;19.10;41.30;;;;;;10554737;28;20234;-76
2022/06/08 01:37:48;;;;;;;0.80;0.80;;;19.10;41.40;;;;;;10546066;28;20231;-76
2022/06/08 01:43:11;;;;;;;3.40;0.93;;;19.10;41.40;;;;;;10553681;28;20237;-76
2022/06/08 01:48:27;;;;;;;0.70;0.70;;;19.10;41.30;;;;;;10553559;28;20377;-76
2022/06/08 01:53:49;;;;;;;0.80;0.80;;;19.10;41.10;;;;;;10539668;28;20222;-76
2022/06/08 01:59:06;;;;;;;0.80;0.80;;;19.10;41.20;;;;;;10552268;28;20242;-76
2022/06/08 02:04:17;;;;;;;1.13;1.00;;;19.10;41.50;;;;;;10546523;28;20278;-76
2022/06/08 02:09:30;;;;;;;0.93;0.93;;;19.00;41.40;;;;;;10560682;27;20227;-76
2022/06/08 02:14:38;;;;;;;1.17;0.80;;;19.00;41.50;;;;;;10563332;27;20243;-76
2022/06/08 02:19:47;;;;;;;1.00;0.90;;;19.00;41.30;;;;;;10564102;27;20230;-76
2022/06/08 02:24:55;;;;;;;1.03;0.93;;;19.00;41.60;;;;;;10562484;27;21151;-76
2022/06/08 02:30:05;;;;;;;1.77;1.00;;;19.00;41.50;;;;;;10558027;27;20227;-76
2022/06/08 02:35:16;;;;;;;1.00;0.90;;;19.00;41.80;;;;;;10511996;28;20223;-76
2022/06/08 02:40:24;;;;;;;0.90;0.90;;;19.10;41.80;;;;;;10515684;28;20220;-76
2022/06/08 02:45:31;;;;;;;1.03;0.90;;;19.10;41.70;;;;;;10508240;28;20239;-76
2022/06/08 02:50:35;;;;;;;0.80;0.80;;;19.00;41.40;;;;;;10539004;27;20228;-76
2022/06/08 02:55:49;;;;;;;1.27;0.90;;;19.00;41.20;;;;;;10561906;28;20250;-76
2022/06/08 03:00:58;;;;;;;3.13;0.93;;;18.90;41.90;;;;;;10562761;28;20222;-76
2022/06/08 03:06:07;;;;;;;2.53;0.97;;;18.90;42.00;;;;;;10553643;27;20219;-76
2022/06/08 03:11:12;;;;;;;1.10;0.90;;;18.90;41.80;;;;;;10560153;27;20224;-76
2022/06/08 03:16:27;;;;;;;1.10;1.00;;;18.90;41.90;;;;;;10555961;27;20227;-76
2022/06/08 03:21:31;;;;;;;1.07;1.03;;;18.80;42.40;;;;;;10560774;27;20222;-76
2022/06/08 03:26:40;;;;;;;2.10;1.10;;;18.80;41.60;;;;;;10562918;28;20242;-76
2022/06/08 03:31:44;;;;;;;0.90;0.90;;;18.80;42.50;;;;;;10505687;28;20244;-76
2022/06/08 03:36:47;;;;;;;0.90;0.90;;;18.80;41.70;;;;;;10555949;28;20222;-76
2022/06/08 03:41:52;;;;;;;1.03;1.00;;;18.80;41.60;;;;;;10558393;27;20221;-76
2022/06/08 03:47:02;;;;;;;1.60;0.90;;;18.80;42.10;;;;;;10558183;27;20230;-76
2022/06/08 03:52:13;;;;;;;4.03;1.70;;;18.80;42.30;;;;;;10539047;27;20246;-76
2022/06/08 03:57:19;;;;;;;3.00;1.80;;;18.80;42.50;;;;;;10556742;28;20246;-76
2022/06/08 04:02:23;;;;;;;4.20;2.40;;;18.80;42.10;;;;;;10555155;28;20223;-76
2022/06/08 04:07:26;;;;;;;1.70;1.60;;;18.80;41.90;;;;;;10560146;28;20252;-76
2022/06/08 04:12:31;;;;;;;2.90;1.17;;;18.80;41.70;;;;;;10560827;28;20742;-76
2022/06/08 04:17:35;;;;;;;1.53;1.27;;;18.70;42.00;;;;;;10564349;27;20645;-76
2022/06/08 04:22:39;;;;;;;1.90;1.10;;;18.70;41.90;;;;;;10556587;28;20235;-76
2022/06/08 04:27:43;;;;;;;2.00;1.20;;;18.70;42.00;;;;;;10557537;27;20223;-76
2022/06/08 04:32:47;;;;;;;2.10;1.03;;;18.70;42.40;;;;;;10550706;28;20713;-76
2022/06/08 04:37:50;;;;;;;2.70;1.50;;;18.60;41.90;;;;;;10555639;28;20936;-76
2022/06/08 04:42:55;;;;;;;2.53;1.63;;;18.60;42.20;;;;;;10558623;27;20235;-76
2022/06/08 04:47:59;;;;;;;2.50;1.70;;;18.60;42.50;;;;;;10559118;28;20218;-76
2022/06/08 04:53:06;;;;;;;3.37;1.97;;;18.60;42.40;;;;;;10565662;28;20321;-76
2022/06/08 04:58:11;;;;;;;2.50;1.63;;;18.50;42.60;;;;;;10550958;28;20729;-76
2022/06/08 05:03:14;;;;;;;2.10;1.70;;;18.60;43.30;;;;;;10546690;28;20343;-76
2022/06/08 05:08:20;;;;;;;1.70;1.60;;;18.60;43.00;;;;;;10555967;28;20833;-76
2022/06/08 05:13:25;;;;;;;1.90;1.43;;;18.70;43.20;;;;;;10558531;28;20691;-76
2022/06/08 05:18:28;;;;;;;1.40;1.30;;;18.80;43.60;;;;;;10545846;28;20225;-76
2022/06/08 05:23:34;;;;;;;1.77;1.40;;;18.90;43.20;;;;;;10553544;28;20227;-76
2022/06/08 05:28:39;;;;;;;1.70;1.60;;;19.00;43.50;;;;;;10553929;28;20235;-76
2022/06/08 05:33:43;;;;;;;3.73;1.50;;;19.00;43.50;;;;;;10548844;28;20606;-76
2022/06/08 05:38:47;;;;;;;1.83;1.30;;;19.00;43.40;;;;;;10548535;28;20627;-76
2022/06/08 05:43:51;;;;;;;1.40;1.30;;;19.10;43.50;;;;;;10552587;28;20227;-76
2022/06/08 05:48:55;;;;;;;1.27;1.20;;;19.20;43.80;;;;;;10555525;28;20227;-76
2022/06/08 05:53:58;;;;;;;1.53;1.43;;;19.40;43.10;;;;;;10558309;28;20713;-76
2022/06/08 05:59:03;;;;;;;2.23;1.70;;;19.60;43.00;;;;;;10547999;28;20219;-76
2022/06/08 06:04:07;;;;;;;2.20;2.10;;;19.70;42.80;;;;;;10538688;28;20223;-76
2022/06/08 06:09:10;;;;;;;1.80;1.70;;;19.70;42.70;;;;;;10549023;28;20247;-76
2022/06/08 06:14:15;;;;;;;1.63;1.53;;;19.80;42.90;;;;;;10551006;28;20222;-76
2022/06/08 06:19:18;;;;;;;2.87;1.90;;;19.90;42.70;;;;;;10547164;28;20226;-77
2022/06/08 06:24:22;;;;;;;1.60;1.50;;;20.00;42.70;;;;;;10553637;28;20231;-76
2022/06/08 06:29:26;;;;;;;1.50;1.40;;;20.20;42.90;;;;;;10555170;28;20226;-76
2022/06/08 06:34:29;;;;;;;1.70;1.30;;;20.30;42.90;;;;;;10557798;27;20263;-76
2022/06/08 06:39:33;;;;;;;1.50;1.40;;;20.50;42.70;;;;;;10540559;27;20220;-76
2022/06/08 06:44:37;;;;;;;1.60;1.50;;;20.60;42.00;;;;;;10553132;28;20241;-77
2022/06/08 06:49:40;;;;;;;1.30;1.20;;;20.80;41.80;;;;;;10557098;28;20229;-76
2022/06/08 06:54:44;;;;;;;1.73;1.43;;;20.90;41.90;;;;;;10559472;28;20239;-76
2022/06/08 06:59:49;;;;;;;3.27;1.50;;;21.00;41.80;;;;;;10561857;28;20233;-76
2022/06/08 07:04:52;;;;;;;2.00;1.53;;;21.20;41.50;;;;;;10542087;28;20242;-76
2022/06/08 07:09:55;;;;;;;1.83;1.63;;;21.30;41.70;;;;;;10560680;27;20231;-76
2022/06/08 07:15:00;;;;;;;1.67;1.40;;;21.50;41.30;;;;;;10561057;27;20241;-76
2022/06/08 07:20:04;;;;;;;1.60;1.50;;;21.60;41.50;;;;;;10530654;28;20211;-76
2022/06/08 07:25:09;;;;;;;1.40;1.30;;;21.80;41.00;;;;;;10551640;28;20228;-76
2022/06/08 07:30:15;;;;;;;1.40;1.30;;;22.00;40.80;;;;;;10551689;28;20794;-76
2022/06/08 07:35:18;;;;;;;1.23;1.13;;;22.10;40.10;;;;;;10559006;28;20237;-77
2022/06/08 07:40:23;;;;;;;1.63;1.40;;;22.10;39.90;;;;;;10549998;28;20302;-76
2022/06/08 07:45:27;;;;;;;1.70;1.60;;;22.10;40.80;;;;;;10555828;28;20222;-77
2022/06/08 07:50:31;;;;;;;1.67;1.27;;;22.20;39.80;;;;;;10554145;28;20223;-76
2022/06/08 07:55:35;;;;;;;1.40;1.30;;;22.20;40.00;;;;;;10558421;27;20222;-77
2022/06/08 08:00:43;;;;;;;1.67;1.20;;;22.30;39.70;;;;;;10546702;28;20232;-76
2022/06/08 08:05:47;;;;;;;1.47;1.33;;;22.50;38.70;;;;;;10553110;27;20318;-76
2022/06/08 08:10:50;;;;;;;1.60;1.30;;;22.60;39.50;;;;;;10558229;28;20219;-76
2022/06/08 08:15:55;;;;;;;1.50;1.40;;;22.70;39.10;;;;;;10561031;27;20869;-76
2022/06/08 08:20:58;;;;;;;1.67;1.30;;;22.90;38.80;;;;;;10544110;28;20362;-76
2022/06/08 08:26:01;;;;;;;1.30;1.20;;;22.90;38.50;;;;;;10548582;28;20228;-76
2022/06/08 08:31:06;;;;;;;1.87;1.30;;;23.00;38.20;;;;;;10551190;28;20219;-76
2022/06/08 08:36:11;;;;;;;1.40;1.30;;;23.00;37.40;;;;;;10560148;27;21080;-76
2022/06/08 08:46:54;;;;;;;1.70;1.37;;;23.00;37.00;;;;;;10519468;28;20230;-76
2022/06/08 08:52:00;;;;;;;2.27;1.50;;;23.10;36.70;;;;;;10516584;28;20592;-76
2022/06/08 08:57:17;;;;;;;1.43;1.27;;;23.10;36.90;;;;;;10542994;28;20302;-76
2022/06/08 09:07:47;;;;;;;1.63;1.40;;;23.40;36.80;;;;;;10550134;28;20322;-76
2022/06/08 09:12:51;;;;;;;2.57;1.40;;;23.60;37.20;;;;;;10562054;28;20679;-77
2022/06/08 09:17:57;;;;;;;1.47;1.37;;;23.70;36.60;;;;;;10555934;28;20215;-76
2022/06/08 09:23:05;;;;;;;2.40;1.30;;;23.70;35.70;;;;;;10549065;28;20585;-76
2022/06/08 09:28:26;;;;;;;2.00;1.30;;;23.70;35.40;;;;;;10545056;28;20218;-76
2022/06/08 09:33:34;;;;;;;3.10;1.47;;;23.70;36.00;;;;;;10552816;28;20227;-76
2022/06/08 09:38:40;;;;;;;1.97;1.20;;;23.70;35.20;;;;;;10559956;27;20262;-76
2022/06/08 09:44:09;;;;;;;1.87;1.40;;;23.80;36.30;;;;;;10551846;28;20226;-77
2022/06/08 09:54:45;;;;;;;1.37;1.27;;;24.20;35.70;;;;;;10548275;28;20614;-77
2022/06/08 10:00:01;;;;;;;2.23;1.30;;;24.50;34.50;;;;;;10547216;28;21012;-77
2022/06/08 10:05:16;;;;;;;1.40;1.30;;;24.70;33.10;;;;;;10538129;28;20226;-76
2022/06/08 10:10:35;;;;;;;1.40;1.20;;;25.00;32.60;;;;;;10556327;27;20229;-77
2022/06/08 10:15:44;;;;;;;1.43;1.33;;;25.20;33.90;;;;;;10554698;28;21321;-77
2022/06/08 10:20:52;;;;;;;1.10;1.10;;;25.40;33.60;;;;;;10550581;28;20231;-77
2022/06/08 10:25:59;;;;;;;1.10;1.00;;;25.70;32.60;;;;;;10557361;28;20231;-76
2022/06/08 10:31:12;;;;;;;2.40;1.30;;;25.70;32.00;;;;;;10538045;27;20306;-77
2022/06/08 10:36:17;;;;;;;3.60;1.23;;;25.70;31.20;;;;;;10555642;27;20236;-76
2022/06/08 10:47:07;;;;;;;2.07;1.20;;;25.70;31.80;;;;;;10516152;28;20236;-77
2022/06/08 10:52:25;;;;;;;2.13;1.30;;;25.80;32.50;;;;;;10511199;28;20224;-76
2022/06/08 10:58:03;;;;;;;1.33;1.10;;;25.80;30.90;;;;;;10518210;28;20231;-76
2022/06/08 11:03:22;;;;;;;1.37;1.27;;;25.90;31.10;;;;;;10508528;28;20220;-76
2022/06/08 11:08:51;;;;;;;1.73;1.20;;;25.90;31.10;;;;;;10512010;28;20278;-76
2022/06/08 11:13:54;;;;;;;1.70;1.10;;;25.90;31.00;;;;;;10509108;28;20259;-76
2022/06/08 11:19:05;;;;;;;1.30;1.20;;;26.00;31.50;;;;;;10503087;28;20234;-76
2022/06/08 11:24:23;;;;;;;2.57;1.17;;;26.00;30.00;;;;;;10513735;28;20224;-76
2022/06/08 11:29:57;;;;;;;1.33;1.17;;;26.00;29.60;;;;;;10511449;28;20234;-76
2022/06/08 11:35:40;;;;;;;3.43;1.20;;;26.10;30.80;;;;;;10509484;28;20233;-76
2022/06/08 11:40:46;;;;;;;3.30;1.23;;;26.10;30.50;;;;;;10509002;28;20249;-76
2022/06/08 11:45:55;;;;;;;1.20;1.10;;;26.30;30.40;;;;;;10562835;28;20238;-76
2022/06/08 11:51:00;;;;;;;1.17;1.00;;;26.40;29.40;;;;;;10551354;28;20226;-76
2022/06/08 11:56:14;;;;;;;2.60;1.20;;;26.50;29.50;;;;;;10555587;28;20219;-76
2022/06/08 12:01:20;;;;;;;1.07;1.00;;;26.60;28.70;;;;;;10556097;28;20227;-76
2022/06/08 12:06:26;;;;;;;1.37;1.03;;;26.60;29.10;;;;;;10546530;28;20235;-76
2022/06/08 12:11:33;;;;;;;2.73;1.07;;;26.60;28.90;;;;;;10552252;27;20731;-76
2022/06/08 12:16:38;;;;;;;1.20;1.10;;;26.70;27.80;;;;;;10552632;27;20242;-76
2022/06/08 12:21:44;;;;;;;1.30;1.20;;;26.70;28.40;;;;;;10549933;27;20237;-76
2022/06/08 12:27:17;;;;;;;1.13;1.10;;;26.70;28.50;;;;;;10548435;27;20226;-76
2022/06/08 12:32:27;;;;;;;1.20;1.10;;;26.70;28.30;;;;;;10549965;28;20229;-76
2022/06/08 12:37:37;;;;;;;1.80;1.10;;;26.70;28.70;;;;;;10548657;28;20225;-76
2022/06/08 12:42:49;;;;;;;1.33;1.13;;;26.80;28.40;;;;;;10551841;27;20234;-76
2022/06/08 12:47:52;;;;;;;1.10;1.00;;;26.80;27.50;;;;;;10546428;28;20230;-76
2022/06/08 12:52:55;;;;;;;1.03;1.03;;;27.00;28.60;;;;;;10547842;28;20972;-76
2022/06/08 12:58:00;;;;;;;2.20;1.10;;;27.00;28.60;;;;;;10514060;28;20223;-76
2022/06/08 13:03:15;;;;;;;1.37;1.10;;;27.10;27.80;;;;;;10499399;28;20223;-76
2022/06/08 13:08:22;;;;;;;1.03;1.03;;;27.20;27.30;;;;;;10503233;28;20231;-76
2022/06/08 13:13:30;;;;;;;1.10;1.00;;;27.20;27.50;;;;;;10511634;28;20897;-76
2022/06/08 13:18:35;;;;;;;1.87;1.10;;;27.20;27.10;;;;;;10501778;28;20228;-76
2022/06/08 13:23:39;;;;;;;1.20;0.90;;;27.10;27.30;;;;;;10504710;28;20239;-75
2022/06/08 13:28:53;;;;;;;1.37;1.20;;;27.10;27.60;;;;;;10501365;28;20227;-76
2022/06/08 13:34:02;;;;;;;2.43;1.00;;;27.10;26.50;;;;;;10504590;28;20756;-72
2022/06/08 13:39:18;;;;;;;1.80;1.30;;;27.10;26.90;;;;;;10502737;28;20289;-75
2022/06/08 13:44:28;;;;;;;0.97;0.97;;;27.10;26.60;;;;;;10499005;28;20230;-75
2022/06/08 13:49:43;;;;;;;1.00;1.00;;;27.00;27.00;;;;;;10501095;28;20220;-76
2022/06/08 13:54:52;;;;;;;1.77;1.00;;;27.00;26.80;;;;;;10508409;28;20231;-75
2022/06/08 13:59:59;;;;;;;1.53;1.10;;;26.90;26.90;;;;;;10506664;28;20714;-75
2022/06/08 14:05:02;;;;;;;1.23;1.00;;;26.90;26.60;;;;;;10509513;28;20225;-75
2022/06/08 14:15:41;;;;;;;1.10;1.10;;;27.10;26.00;;;;;;10506542;28;20605;-75
2022/06/08 14:20:46;;;;;;;1.30;1.20;;;27.10;26.10;;;;;;10510742;28;20231;-74
2022/06/08 14:25:57;;;;;;;1.10;1.00;;;27.20;26.60;;;;;;10511365;28;20234;-74
2022/06/08 14:31:25;;;;;;;1.20;1.00;;;27.20;27.40;;;;;;10510684;28;20242;-74
2022/06/08 14:36:29;;;;;;;1.47;1.10;;;27.20;25.80;;;;;;10513320;28;20232;-75
2022/06/08 14:41:52;;;;;;;0.93;0.90;;;27.10;26.60;;;;;;10512500;28;20223;-74
2022/06/08 14:47:00;;;;;;;1.10;1.10;;;27.20;26.50;;;;;;10514701;28;20231;-74
2022/06/08 14:52:07;;;;;;;1.43;1.20;;;27.20;26.00;;;;;;10560529;28;20222;-74
2022/06/08 14:57:21;;;;;;;1.40;1.30;;;27.20;25.80;;;;;;10562043;27;20226;-74
2022/06/08 15:02:30;;;;;;;1.00;1.00;;;27.20;26.00;;;;;;10554362;28;20595;-74
2022/06/08 15:07:34;;;;;;;1.23;1.10;;;27.30;25.30;;;;;;10562298;27;20228;-74
2022/06/08 15:12:38;;;;;;;1.20;1.20;;;27.30;26.00;;;;;;10558539;27;20252;-74
2022/06/08 15:17:45;;;;;;;1.10;1.03;;;27.20;26.00;;;;;;10545596;28;20239;-74
2022/06/08 15:22:50;;;;;;;1.13;1.07;;;27.20;25.10;;;;;;10550241;28;20233;-74
2022/06/08 15:27:57;;;;;;;1.93;1.10;;;27.20;25.30;;;;;;10560398;27;20224;-74
2022/06/08 15:33:03;;;;;;;1.00;0.97;;;27.20;25.30;;;;;;10562116;27;20226;-74
2022/06/08 15:38:07;;;;;;;1.57;1.13;;;27.20;25.50;;;;;;10552964;28;20225;-74
2022/06/08 15:43:11;;;;;;;1.93;1.17;;;27.20;25.70;;;;;;10559565;27;20901;-74
2022/06/08 15:48:16;;;;;;;1.20;1.10;;;27.20;25.60;;;;;;10560326;28;20223;-74
2022/06/08 15:53:32;;;;;;;1.37;1.20;;;27.20;25.50;;;;;;10552648;27;20771;-74
2022/06/08 15:58:35;;;;;;;1.07;1.07;;;27.30;25.00;;;;;;10553815;27;20227;-74
2022/06/08 16:03:40;;;;;;;1.00;1.00;;;27.40;25.50;;;;;;10554030;28;20227;-74
2022/06/08 16:08:43;;;;;;;0.90;0.90;;;27.50;24.80;;;;;;10556150;28;20250;-74
2022/06/08 16:13:46;;;;;;;1.30;1.20;;;27.50;25.30;;;;;;10556002;27;20289;-74
2022/06/08 16:18:51;;;;;;;1.47;1.20;;;27.50;25.30;;;;;;10547541;28;20228;-75
2022/06/08 16:23:57;;;;;;;1.27;1.10;;;27.50;24.70;;;;;;10551686;28;20309;-74
2022/06/08 16:29:01;;;;;;;1.27;1.10;;;27.50;24.80;;;;;;10556287;27;20706;-74
2022/06/08 16:34:05;;;;;;;0.80;0.80;;;27.50;24.90;;;;;;10520894;27;20242;-74
2022/06/08 16:39:09;;;;;;;1.17;1.00;;;27.40;24.70;;;;;;10541840;27;20219;-74
2022/06/08 16:44:12;;;;;;;1.20;1.10;;;27.30;24.90;;;;;;10552517;27;20726;-74
2022/06/08 16:49:17;;;;;;;1.00;1.00;;;27.30;25.10;;;;;;10549381;28;20225;-74
2022/06/08 16:54:20;;;;;;;1.17;1.10;;;27.20;24.70;;;;;;10553728;28;20226;-74
2022/06/08 16:59:39;;;;;;;1.33;1.10;;;27.20;25.10;;;;;;10530157;28;20223;-74
2022/06/08 17:04:44;;;;;;;2.87;1.20;;;27.10;25.20;;;;;;10504647;28;20599;-74
2022/06/08 17:09:49;;;;;;;1.20;1.00;;;27.10;25.10;;;;;;10508344;28;20310;-74
2022/06/08 17:14:53;;;;;;;1.80;1.10;;;27.10;25.40;;;;;;10509590;28;20250;-74
2022/06/08 17:19:58;;;;;;;2.60;1.20;;;27.10;25.60;;;;;;10501122;28;20236;-74
2022/06/08 17:25:01;;;;;;;1.20;1.10;;;27.10;25.40;;;;;;10514800;28;20594;-74
2022/06/08 17:30:08;;;;;;;1.03;1.00;;;27.10;25.60;;;;;;10506122;28;20219;-74
2022/06/08 17:35:14;;;;;;;1.33;1.10;;;27.00;25.70;;;;;;10507558;28;20231;-74
2022/06/08 17:40:17;;;;;;;1.17;1.17;;;27.00;26.10;;;;;;10506618;28;20238;-74
2022/06/08 17:45:20;;;;;;;1.17;1.10;;;27.00;26.00;;;;;;10512589;28;20238;-74
2022/06/08 17:50:29;;;;;;;1.20;1.10;;;26.90;26.30;;;;;;10504275;28;20235;-74
2022/06/08 17:55:32;;;;;;;1.63;1.10;;;26.90;26.60;;;;;;10509617;28;20220;-74
2022/06/08 18:00:36;;;;;;;1.20;1.10;;;26.90;26.40;;;;;;10511059;28;20304;-74
2022/06/08 18:05:41;;;;;;;1.93;1.20;;;26.80;26.50;;;;;;10504777;28;20239;-74
2022/06/08 18:10:45;;;;;;;2.10;1.00;;;26.80;26.60;;;;;;10505162;28;20962;-74
2022/06/08 18:15:51;;;;;;;1.47;1.37;;;26.70;26.40;;;;;;10499167;28;20226;-74
2022/06/08 18:20:56;;;;;;;2.43;1.40;;;26.70;26.20;;;;;;10504565;28;20231;-74
2022/06/08 18:26:00;;;;;;;1.17;1.10;;;26.60;25.90;;;;;;10508031;28;20234;-74
2022/06/08 18:31:04;;;;;;;1.70;1.10;;;26.40;25.80;;;;;;10511954;28;20216;-74
2022/06/08 18:36:10;;;;;;;1.20;1.10;;;26.30;25.50;;;;;;10503241;28;20284;-74
2022/06/08 18:41:16;;;;;;;1.97;1.30;;;26.00;25.20;;;;;;10504336;28;20224;-74
2022/06/08 18:46:19;;;;;;;3.90;1.30;;;25.70;25.40;;;;;;10509973;28;20242;-74
2022/06/08 18:51:25;;;;;;;3.87;1.30;;;25.30;25.70;;;;;;10518032;28;20304;-74
2022/06/08 18:56:28;;;;;;;1.47;1.10;;;24.80;26.40;;;;;;10520240;28;20230;-74
2022/06/08 19:01:31;;;;;;;2.53;1.40;;;24.30;27.20;;;;;;10511408;28;20584;-74
2022/06/08 19:06:37;;;;;;;6.60;1.50;;;23.80;27.90;;;;;;10504545;28;20735;-75
2022/06/08 19:11:40;;;;;;;1.30;1.20;;;23.30;28.70;;;;;;10508437;28;20228;-75
2022/06/08 19:16:43;;;;;;;1.20;1.10;;;22.90;28.50;;;;;;10510287;28;20231;-74
2022/06/08 19:21:49;;;;;;;1.80;1.30;;;22.70;29.00;;;;;;10509793;28;20238;-75
2022/06/08 19:26:52;;;;;;;1.77;1.30;;;22.50;29.30;;;;;;10508506;28;20313;-75
2022/06/08 19:31:56;;;;;;;1.00;1.00;;;22.40;29.00;;;;;;10509304;28;20227;-75
2022/06/08 19:37:01;;;;;;;1.60;1.07;;;22.30;29.10;;;;;;10506934;28;20223;-76
2022/06/08 19:42:05;;;;;;;1.37;1.10;;;22.20;29.40;;;;;;10504441;28;20807;-75
2022/06/08 19:47:08;;;;;;;2.40;1.10;;;22.10;29.20;;;;;;10516247;28;20247;-75
2022/06/08 19:52:12;;;;;;;1.57;1.27;;;22.00;29.40;;;;;;10511053;28;20236;-75
2022/06/08 19:57:16;;;;;;;1.20;1.10;;;21.90;30.00;;;;;;10509135;28;20240;-76
2022/06/08 20:02:19;;;;;;;2.17;1.30;;;21.80;29.90;;;;;;10513854;28;20303;-75
2022/06/08 20:07:24;;;;;;;1.20;1.10;;;21.60;30.00;;;;;;10505025;28;20229;-76
2022/06/08 20:12:27;;;;;;;2.43;1.30;;;21.50;30.70;;;;;;10519208;28;20227;-74
2022/06/08 20:17:30;;;;;;;1.13;0.93;;;21.50;30.50;;;;;;10514861;28;20234;-75
2022/06/08 20:22:35;;;;;;;1.63;1.13;;;21.40;30.50;;;;;;10506111;28;20230;-76
2022/06/08 20:27:38;;;;;;;1.27;1.03;;;21.30;30.80;;;;;;10518097;28;20223;-75
2022/06/08 20:32:42;;;;;;;1.30;1.20;;;21.30;30.50;;;;;;10512769;28;20739;-75
2022/06/08 20:37:47;;;;;;;1.20;1.10;;;21.20;30.70;;;;;;10513212;28;20231;-75
2022/06/08 20:42:50;;;;;;;2.27;1.30;;;21.20;31.10;;;;;;10509648;28;20232;-74
2022/06/08 20:47:54;;;;;;;2.33;1.40;;;21.20;30.70;;;;;;10502942;28;20224;-75
2022/06/08 20:52:59;;;;;;;2.30;1.33;;;21.30;30.80;;;;;;10509703;28;20603;-75
2022/06/08 20:58:02;;;;;;;1.40;1.10;;;21.20;31.20;;;;;;10508147;28;20238;-75
2022/06/08 21:03:08;;;;;;;1.43;1.03;;;21.30;31.10;;;;;;10515541;28;20710;-75
2022/06/08 21:08:14;;;;;;;1.37;1.27;;;21.30;31.40;;;;;;10507124;28;20223;-75
2022/06/08 21:13:18;;;;;;;2.57;1.40;;;21.30;31.70;;;;;;10514499;28;20255;-75
2022/06/08 21:18:24;;;;;;;2.07;1.10;;;21.30;31.40;;;;;;10507072;28;20228;-75
2022/06/08 21:23:30;;;;;;;1.70;1.30;;;21.10;32.30;;;;;;10506112;28;20224;-74
2022/06/08 21:28:33;;;;;;;2.30;1.57;;;21.00;32.40;;;;;;10510633;28;20596;-74
2022/06/08 21:33:37;;;;;;;1.53;1.43;;;20.80;32.10;;;;;;10514184;28;20703;-74
2022/06/08 21:38:43;;;;;;;1.73;1.03;;;20.70;32.40;;;;;;10509404;28;20720;-74
2022/06/08 21:43:46;;;;;;;1.40;1.30;;;20.60;33.00;;;;;;10512457;28;20239;-74
2022/06/08 21:48:49;;;;;;;3.93;1.67;;;20.60;32.70;;;;;;10503489;28;20227;-74
2022/06/08 21:53:54;;;;;;;1.80;1.20;;;20.60;33.00;;;;;;10500274;28;20227;-75
2022/06/08 21:58:57;;;;;;;1.63;1.30;;;20.60;33.70;;;;;;10504744;28;20722;-74
2022/06/08 22:04:01;;;;;;;2.60;1.37;;;20.60;33.20;;;;;;10502449;28;20232;-75
2022/06/08 22:09:07;;;;;;;2.40;1.40;;;20.60;33.30;;;;;;10512258;28;20215;-74
2022/06/08 22:14:10;;;;;;;1.93;1.20;;;20.60;34.10;;;;;;10513145;28;20223;-75
2022/06/08 22:19:13;;;;;;;1.70;1.50;;;20.60;33.50;;;;;;10519502;28;20235;-75
2022/06/08 22:24:18;;;;;;;1.37;1.17;;;20.60;33.40;;;;;;10513319;28;20242;-74
2022/06/08 22:29:21;;;;;;;1.17;1.07;;;20.50;33.70;;;;;;10521126;28;20250;-75
2022/06/08 22:34:25;;;;;;;1.63;1.10;;;20.50;33.50;;;;;;10515461;28;20574;-75
2022/06/08 22:39:29;;;;;;;1.80;1.00;;;20.40;33.90;;;;;;10520833;28;20223;-75
2022/06/08 22:44:32;;;;;;;2.03;1.17;;;20.30;34.20;;;;;;10521450;28;20706;-75
2022/06/08 22:49:36;;;;;;;1.30;1.20;;;20.20;34.00;;;;;;10508461;28;20269;-74
2022/06/08 22:54:40;;;;;;;2.63;1.30;;;20.10;34.30;;;;;;10506319;28;20962;-75
2022/06/08 22:59:44;;;;;;;1.37;1.10;;;19.90;35.40;;;;;;10518830;28;20234;-74
2022/06/08 23:04:47;;;;;;;1.73;1.20;;;19.60;35.10;;;;;;10513143;28;20231;-74
2022/06/08 23:09:51;;;;;;;3.10;1.20;;;19.40;35.60;;;;;;10515102;28;20243;-74
2022/06/08 23:14:55;;;;;;;2.90;1.40;;;19.30;35.90;;;;;;10511821;28;20224;-75
2022/06/08 23:25:29;;;;;;;2.63;1.10;;;19.10;35.80;;;;;;10509752;28;20230;-75
2022/06/08 23:30:33;;;;;;;1.20;1.10;;;19.00;37.40;;;;;;10519510;28;20226;-75
2022/06/08 23:35:36;;;;;;;2.50;1.13;;;19.00;36.60;;;;;;10553098;28;20230;-75
2022/06/08 23:40:42;;;;;;;2.73;1.30;;;19.00;36.70;;;;;;10562493;28;20223;-76
2022/06/08 23:45:48;;;;;;;1.77;1.27;;;18.90;38.30;;;;;;10548466;28;20230;-76
2022/06/08 23:51:08;;;;;;;2.10;1.30;;;19.00;37.10;;;;;;10557520;28;20707;-76
2022/06/08 23:56:13;;;;;;;2.00;1.23;;;18.90;37.20;;;;;;10517354;28;20230;-76
